Time,TemperatureF,DewpointF,PressureIn,WindDirection,WindDirectionDegrees,WindSpeedMPH,WindSpeedGustMPH,Humidity,HourlyPrecipIn,Conditions,Clouds,dailyrainin,SolarRadiationWatts/m^2,SoftwareType,DateUTC
2013-07-29 00:00:00,61.0,50.0,-100.00,NW,307,8.0,21.0,67,-99.99,,,0.00,0.000000,,2013-07-29 07:00:00,
2013-07-29 00:43:00,61.0,50.0,-100.00,NW,307,8.0,21.0,67,-99.99,,,0.00,0.000000,,2013-07-29 07:43:00,
2013-07-29 00:53:00,61.0,50.0,-100.00,NW,307,8.0,21.0,67,-99.99,,,0.00,0.000000,,2013-07-29 07:53:00,
2013-07-29 01:00:00,60.0,50.0,-100.00,WNW,297,8.0,20.0,69,-99.99,,,0.00,0.000000,,2013-07-29 08:00:00,
2013-07-29 01:42:00,60.0,50.0,-100.00,WNW,297,8.0,20.0,69,-99.99,,,0.00,0.000000,,2013-07-29 08:42:00,
2013-07-29 01:52:00,60.0,50.0,-100.00,WNW,297,8.0,20.0,69,-99.99,,,0.00,0.000000,,2013-07-29 08:52:00,
2013-07-29 02:00:00,59.0,50.0,-100.00,WNW,290,8.0,20.0,72,-99.99,,,0.00,0.000000,,2013-07-29 09:00:00,
2013-07-29 02:43:00,59.0,50.0,-100.00,WNW,290,8.0,20.0,72,-99.99,,,0.00,0.000000,,2013-07-29 09:43:00,
2013-07-29 02:53:00,59.0,50.0,-100.00,WNW,290,8.0,20.0,72,-99.99,,,0.00,0.000000,,2013-07-29 09:53:00,
2013-07-29 03:00:00,59.0,50.0,-100.00,WNW,294,10.0,26.0,73,-99.99,,,0.00,0.000000,,2013-07-29 10:00:00,
2013-07-29 03:55:00,59.0,50.0,-100.00,WNW,294,10.0,26.0,73,-99.99,,,0.00,0.000000,,2013-07-29 10:55:00,
2013-07-29 04:00:00,57.0,50.0,-100.00,WNW,294,8.0,19.0,77,-99.99,,,0.00,0.000000,,2013-07-29 11:00:00,
2013-07-29 04:44:00,57.0,50.0,-100.00,WNW,294,8.0,19.0,77,-99.99,,,0.00,0.000000,,2013-07-29 11:44:00,
2013-07-29 04:58:00,57.0,50.0,-100.00,WNW,294,8.0,19.0,77,-99.99,,,0.00,0.000000,,2013-07-29 11:58:00,
2013-07-29 05:00:00,54.0,49.0,-100.00,SSW,207,3.0,13.0,81,-99.99,,,0.00,0.000000,,2013-07-29 12:00:00,
2013-07-29 05:44:00,54.0,49.0,-100.00,SSW,207,3.0,13.0,81,-99.99,,,0.00,0.000000,,2013-07-29 12:44:00,
2013-07-29 05:57:00,54.0,49.0,-100.00,SSW,207,3.0,13.0,81,-99.99,,,0.00,0.000000,,2013-07-29 12:57:00,
2013-07-29 06:00:00,56.0,51.0,-100.00,WSW,255,3.0,11.0,84,-99.99,,,0.00,6.280000,,2013-07-29 13:00:00,
2013-07-29 06:57:00,56.0,51.0,-100.00,WSW,255,3.0,11.0,84,-99.99,,,0.00,6.280000,,2013-07-29 13:57:00,
2013-07-29 07:00:00,55.0,48.0,-100.00,SSW,213,4.0,13.0,78,-99.99,,,0.00,45.790001,,2013-07-29 14:00:00,
2013-07-29 07:43:00,55.0,48.0,-100.00,SSW,213,4.0,13.0,78,-99.99,,,0.00,45.790001,,2013-07-29 14:43:00,
2013-07-29 07:57:00,55.0,48.0,-100.00,SSW,213,4.0,13.0,78,-99.99,,,0.00,45.790001,,2013-07-29 14:57:00,
2013-07-29 08:00:00,60.0,50.0,-100.00,WNW,292,7.0,21.0,71,-99.99,,,0.00,327.859985,,2013-07-29 15:00:00,
2013-07-29 08:44:00,60.0,50.0,-100.00,WNW,292,7.0,21.0,71,-99.99,,,0.00,327.859985,,2013-07-29 15:44:00,
2013-07-29 08:55:00,60.0,50.0,-100.00,WNW,292,7.0,21.0,71,-99.99,,,0.00,327.859985,,2013-07-29 15:55:00,
2013-07-29 09:00:00,61.0,51.0,-100.00,WNW,294,8.0,22.0,68,-99.99,,,0.00,515.900024,,2013-07-29 16:00:00,
2013-07-29 09:44:00,61.0,51.0,-100.00,WNW,294,8.0,22.0,68,-99.99,,,0.00,515.900024,,2013-07-29 16:44:00,
2013-07-29 09:57:00,61.0,51.0,-100.00,WNW,294,8.0,22.0,68,-99.99,,,0.00,515.900024,,2013-07-29 16:57:00,
2013-07-29 10:43:00,63.0,51.0,-100.00,WNW,294,8.0,18.0,64,-99.99,,,0.00,666.169983,,2013-07-29 17:43:00,
2013-07-29 10:58:00,63.0,51.0,-100.00,WNW,294,8.0,18.0,64,-99.99,,,0.00,666.169983,,2013-07-29 17:58:00,
2013-07-29 11:00:00,67.0,52.0,-100.00,WNW,290,6.0,17.0,59,-99.99,,,0.00,771.820007,,2013-07-29 18:00:00,
2013-07-29 11:43:00,67.0,52.0,-100.00,WNW,290,6.0,17.0,59,-99.99,,,0.00,771.820007,,2013-07-29 18:43:00,
2013-07-29 11:57:00,67.0,52.0,-100.00,WNW,290,6.0,17.0,59,-99.99,,,0.00,771.820007,,2013-07-29 18:57:00,
2013-07-29 12:00:00,69.0,52.0,-100.00,WNW,300,6.0,16.0,54,-99.99,,,0.00,797.969971,,2013-07-29 19:00:00,
2013-07-29 12:44:00,69.0,52.0,-100.00,WNW,300,6.0,16.0,54,-99.99,,,0.00,797.969971,,2013-07-29 19:44:00,
2013-07-29 12:57:00,69.0,52.0,-100.00,WNW,300,6.0,16.0,54,-99.99,,,0.00,797.969971,,2013-07-29 19:57:00,
2013-07-29 13:00:00,73.0,53.0,-100.00,NW,307,5.0,15.0,48,-99.99,,,0.00,766.700012,,2013-07-29 20:00:00,
2013-07-29 13:46:00,73.0,53.0,-100.00,NW,307,5.0,15.0,48,-99.99,,,0.00,766.700012,,2013-07-29 20:46:00,
2013-07-29 13:58:00,73.0,53.0,-100.00,NW,307,5.0,15.0,48,-99.99,,,0.00,766.700012,,2013-07-29 20:58:00,
2013-07-29 14:00:00,76.0,49.0,-100.00,WNW,290,6.0,16.0,38,-99.99,,,0.00,887.570007,,2013-07-29 21:00:00,
2013-07-29 14:45:00,76.0,49.0,-100.00,WNW,290,6.0,16.0,38,-99.99,,,0.00,887.570007,,2013-07-29 21:45:00,
2013-07-29 15:00:00,78.0,45.0,-100.00,WNW,293,7.0,19.0,31,-99.99,,,0.00,824.929993,,2013-07-29 22:00:00,
2013-07-29 15:43:00,78.0,45.0,-100.00,WNW,293,7.0,19.0,31,-99.99,,,0.00,824.929993,,2013-07-29 22:43:00,
2013-07-29 15:55:00,78.0,45.0,-100.00,WNW,293,7.0,19.0,31,-99.99,,,0.00,824.929993,,2013-07-29 22:55:00,
2013-07-29 16:00:00,77.0,46.0,-100.00,WNW,294,10.0,23.0,32,-99.99,,,0.00,719.750000,,2013-07-29 23:00:00,
2013-07-29 16:44:00,77.0,46.0,-100.00,WNW,294,10.0,23.0,32,-99.99,,,0.00,719.750000,,2013-07-29 23:44:00,
2013-07-29 16:56:00,77.0,46.0,-100.00,WNW,294,10.0,23.0,32,-99.99,,,0.00,719.750000,,2013-07-29 23:56:00,
2013-07-29 17:00:00,79.0,47.0,-100.00,WNW,283,6.0,15.0,32,-99.99,,,0.00,646.760010,,2013-07-30 00:00:00,
2013-07-29 17:45:00,79.0,47.0,-100.00,WNW,283,6.0,15.0,32,-99.99,,,0.00,646.760010,,2013-07-30 00:45:00,
2013-07-29 17:55:00,79.0,47.0,-100.00,WNW,283,6.0,15.0,32,-99.99,,,0.00,646.760010,,2013-07-30 00:55:00,
2013-07-29 18:00:00,78.0,46.0,-100.00,West,262,6.0,16.0,32,-99.99,,,0.00,363.880005,,2013-07-30 01:00:00,
2013-07-29 18:44:00,78.0,46.0,-100.00,West,262,6.0,16.0,32,-99.99,,,0.00,363.880005,,2013-07-30 01:44:00,
2013-07-29 18:59:00,78.0,46.0,-100.00,West,262,6.0,16.0,32,-99.99,,,0.00,363.880005,,2013-07-30 01:59:00,
2013-07-29 19:45:00,73.0,48.0,-100.00,SW,235,6.0,13.0,41,-99.99,,,0.00,94.019997,,2013-07-30 02:45:00,
2013-07-29 19:55:00,73.0,48.0,-100.00,SW,235,6.0,13.0,41,-99.99,,,0.00,94.019997,,2013-07-30 02:55:00,
2013-07-29 20:00:00,73.0,49.0,-100.00,West,280,7.0,15.0,42,-99.99,,,0.00,60.090000,,2013-07-30 03:00:00,
2013-07-29 20:43:00,73.0,49.0,-100.00,West,280,7.0,15.0,42,-99.99,,,0.00,60.090000,,2013-07-30 03:43:00,
2013-07-29 21:00:00,71.0,50.0,-100.00,WNW,298,5.0,13.0,47,-99.99,,,0.00,1.740000,,2013-07-30 04:00:00,
2013-07-29 21:43:00,71.0,50.0,-100.00,WNW,298,5.0,13.0,47,-99.99,,,0.00,1.740000,,2013-07-30 04:43:00,
2013-07-29 21:53:00,71.0,50.0,-100.00,WNW,298,5.0,13.0,47,-99.99,,,0.00,1.740000,,2013-07-30 04:53:00,
2013-07-29 22:00:00,70.0,50.0,-100.00,WNW,288,4.0,9.0,49,-99.99,,,0.00,0.000000,,2013-07-30 05:00:00,
2013-07-29 22:45:00,70.0,50.0,-100.00,WNW,288,4.0,9.0,49,-99.99,,,0.00,0.000000,,2013-07-30 05:45:00,
2013-07-29 22:52:00,70.0,50.0,-100.00,WNW,288,4.0,9.0,49,-99.99,,,0.00,0.000000,,2013-07-30 05:52:00,
2013-07-29 23:00:00,68.0,52.0,-100.00,NW,313,1.0,5.0,56,-99.99,,,0.00,0.000000,,2013-07-30 06:00:00,
2013-07-29 23:43:00,68.0,52.0,-100.00,NW,313,1.0,5.0,56,-99.99,,,0.00,0.000000,,2013-07-30 06:43:00,
2013-07-29 23:53:00,68.0,52.0,-100.00,NW,313,1.0,5.0,56,-99.99,,,0.00,0.000000,,2013-07-30 06:53:00,